sensor_id;sensor_type;location;lat;lon;timestamp;pressure;altitude;pressure_sealevel;temperature;humidity
21781;BME280;52576;53.614;9.894;2022-09-17T00:00:02;99955.25;;;11.98;100.00
21781;BME280;52576;53.614;9.894;2022-09-17T00:01:14;99952.81;;;11.97;100.00
21781;BME280;52576;53.614;9.894;2022-09-17T00:02:17;99976.09;;;11.96;100.00
21781;BME280;52576;53.614;9.894;2022-09-17T00:03:20;99954.06;;;11.94;100.00
21781;BME280;52576;53.614;9.894;2022-09-17T00:04:23;99954.06;;;11.94;100.00
21781;BME280;52576;53.614;9.894;2022-09-17T00:05:25;99948.94;;;11.93;100.00
21781;BME280;52576;53.614;9.894;2022-09-17T00:06:29;99957.00;;;11.93;100.00
21781;BME280;52576;53.614;9.894;2022-09-17T00:07:33;99942.78;;;11.92;100.00
21781;BME280;52576;53.614;9.894;2022-09-17T00:08:37;99951.63;;;11.93;100.00
21781;BME280;52576;53.614;9.894;2022-09-17T00:09:40;99937.41;;;11.92;100.00
21781;BME280;52576;53.614;9.894;2022-09-17T00:10:44;99947.34;;;11.92;100.00
21781;BME280;52576;53.614;9.894;2022-09-17T00:11:46;99953.50;;;11.92;100.00
21781;BME280;52576;53.614;9.894;2022-09-17T00:12:49;99958.84;;;11.92;100.00
21781;BME280;52576;53.614;9.894;2022-09-17T00:13:52;99960.50;;;11.93;100.00
21781;BME280;52576;53.614;9.894;2022-09-17T00:14:56;99965.25;;;11.91;100.00
21781;BME280;52576;53.614;9.894;2022-09-17T00:15:58;99959.91;;;11.91;100.00
21781;BME280;52576;53.614;9.894;2022-09-17T00:17:01;99950.59;;;11.94;100.00
21781;BME280;52576;53.614;9.894;2022-09-17T00:18:04;99957.81;;;11.93;100.00
21781;BME280;52576;53.614;9.894;2022-09-17T00:19:12;99956.75;;;11.94;100.00
21781;BME280;52576;53.614;9.894;2022-09-17T00:20:15;99964.78;;;11.94;100.00
21781;BME280;52576;53.614;9.894;2022-09-17T00:21:18;99964.78;;;11.94;100.00
21781;BME280;52576;53.614;9.894;2022-09-17T00:22:21;99960.25;;;11.95;100.00
21781;BME280;52576;53.614;9.894;2022-09-17T00:23:25;99966.44;;;11.95;100.00
21781;BME280;52576;53.614;9.894;2022-09-17T00:24:28;99977.16;;;11.95;100.00
21781;BME280;52576;53.614;9.894;2022-09-17T00:25:30;99973.41;;;11.96;100.00
21781;BME280;52576;53.614;9.894;2022-09-17T00:26:34;99983.31;;;11.96;100.00
21781;BME280;52576;53.614;9.894;2022-09-17T00:27:37;99963.53;;;11.97;100.00
21781;BME280;52576;53.614;9.894;2022-09-17T00:28:40;99969.47;;;11.99;100.00
21781;BME280;52576;53.614;9.894;2022-09-17T00:29:47;99967.81;;;11.98;100.00
21781;BME280;52576;53.614;9.894;2022-09-17T00:30:50;99962.22;;;11.99;100.00
21781;BME280;52576;53.614;9.894;2022-09-17T00:31:52;99968.41;;;12.00;100.00
21781;BME280;52576;53.614;9.894;2022-09-17T00:32:55;99963.88;;;12.00;100.00
21781;BME280;52576;53.614;9.894;2022-09-17T00:33:59;99960.38;;;12.00;100.00
21781;BME280;52576;53.614;9.894;2022-09-17T00:35:03;99968.41;;;12.00;100.00
21781;BME280;52576;53.614;9.894;2022-09-17T00:36:05;99970.03;;;12.01;100.00
21781;BME280;52576;53.614;9.894;2022-09-17T00:37:09;99967.59;;;11.99;100.00
21781;BME280;52576;53.614;9.894;2022-09-17T00:38:11;99966.78;;;11.99;100.00
21781;BME280;52576;53.614;9.894;2022-09-17T00:39:15;99973.19;;;11.98;100.00
21781;BME280;52576;53.614;9.894;2022-09-17T00:40:19;99970.50;;;11.98;100.00
21781;BME280;52576;53.614;9.894;2022-09-17T00:41:23;99976.34;;;11.95;100.00
21781;BME280;52576;53.614;9.894;2022-09-17T00:42:26;99975.50;;;11.94;100.00
21781;BME280;52576;53.614;9.894;2022-09-17T00:43:34;99972.25;;;11.92;100.00
21781;BME280;52576;53.614;9.894;2022-09-17T00:44:43;99971.69;;;11.90;100.00
21781;BME280;52576;53.614;9.894;2022-09-17T00:45:46;99971.09;;;11.88;100.00
21781;BME280;52576;53.614;9.894;2022-09-17T00:46:50;99980.16;;;11.87;100.00
21781;BME280;52576;53.614;9.894;2022-09-17T00:47:57;99978.78;;;11.85;100.00
21781;BME280;52576;53.614;9.894;2022-09-17T00:49:03;99979.84;;;11.84;100.00
21781;BME280;52576;53.614;9.894;2022-09-17T00:50:08;99975.75;;;11.81;100.00
21781;BME280;52576;53.614;9.894;2022-09-17T00:51:13;99979.25;;;11.82;100.00
21781;BME280;52576;53.614;9.894;2022-09-17T00:52:19;99972.94;;;11.76;100.00
21781;BME280;52576;53.614;9.894;2022-09-17T00:53:24;99981.56;;;11.78;100.00
21781;BME280;52576;53.614;9.894;2022-09-17T00:54:28;99981.78;;;11.77;100.00
21781;BME280;52576;53.614;9.894;2022-09-17T00:55:34;99974.00;;;11.75;100.00
21781;BME280;52576;53.614;9.894;2022-09-17T00:56:40;99976.91;;;11.74;100.00
21781;BME280;52576;53.614;9.894;2022-09-17T00:57:44;99977.09;;;11.72;100.00
21781;BME280;52576;53.614;9.894;2022-09-17T00:58:48;99971.97;;;11.71;100.00
21781;BME280;52576;53.614;9.894;2022-09-17T00:59:51;99976.53;;;11.70;100.00
21781;BME280;52576;53.614;9.894;2022-09-17T01:00:54;99981.31;;;11.68;100.00
21781;BME280;52576;53.614;9.894;2022-09-17T01:01:57;99983.41;;;11.66;100.00
21781;BME280;52576;53.614;9.894;2022-09-17T01:03:00;99976.66;;;11.64;100.00
21781;BME280;52576;53.614;9.894;2022-09-17T01:04:02;99974.97;;;11.63;100.00
21781;BME280;52576;53.614;9.894;2022-09-17T01:05:06;99980.31;;;11.63;100.00
21781;BME280;52576;53.614;9.894;2022-09-17T01:06:14;99982.41;;;11.61;100.00
21781;BME280;52576;53.614;9.894;2022-09-17T01:07:30;99978.13;;;11.60;100.00
21781;BME280;52576;53.614;9.894;2022-09-17T01:08:41;99980.19;;;11.58;100.00
21781;BME280;52576;53.614;9.894;2022-09-17T01:09:54;99982.28;;;11.56;100.00
21781;BME280;52576;53.614;9.894;2022-09-17T01:11:14;99983.56;;;11.53;100.00
21781;BME280;52576;53.614;9.894;2022-09-17T01:12:36;99978.44;;;11.52;100.00
21781;BME280;52576;53.614;9.894;2022-09-17T01:13:51;99983.22;;;11.50;100.00
21781;BME280;52576;53.614;9.894;2022-09-17T01:15:06;99992.06;;;11.50;100.00
21781;BME280;52576;53.614;9.894;2022-09-17T01:16:16;99984.47;;;11.47;100.00
21781;BME280;52576;53.614;9.894;2022-09-17T01:17:28;99981.78;;;11.47;100.00
21781;BME280;52576;53.614;9.894;2022-09-17T01:18:43;99980.16;;;11.46;100.00
21781;BME280;52576;53.614;9.894;2022-09-17T01:20:26;99986.34;;;11.47;100.00
21781;BME280;52576;53.614;9.894;2022-09-17T01:21:45;99980.78;;;11.48;100.00
21781;BME280;52576;53.614;9.894;2022-09-17T01:22:59;99978.31;;;11.47;100.00
21781;BME280;52576;53.614;9.894;2022-09-17T01:24:28;99977.25;;;11.48;100.00
21781;BME280;52576;53.614;9.894;2022-09-17T01:25:47;99983.69;;;11.47;100.00
21781;BME280;52576;53.614;9.894;2022-09-17T01:28:33;99982.03;;;11.46;100.00
21781;BME280;52576;53.614;9.894;2022-09-17T01:29:58;99981.22;;;11.45;100.00
21781;BME280;52576;53.614;9.894;2022-09-17T01:31:25;99983.91;;;11.45;100.00
21781;BME280;52576;53.614;9.894;2022-09-17T01:32:37;99989.13;;;11.40;100.00
21781;BME280;52576;53.614;9.894;2022-09-17T01:33:43;99982.47;;;11.43;100.00
21781;BME280;52576;53.614;9.894;2022-09-17T01:34:55;99987.00;;;11.42;100.00
21781;BME280;52576;53.614;9.894;2022-09-17T01:36:08;99984.34;;;11.42;100.00
21781;BME280;52576;53.614;9.894;2022-09-17T01:37:17;99986.44;;;11.40;100.00
21781;BME280;52576;53.614;9.894;2022-09-17T01:38:34;99980.28;;;11.39;100.00
21781;BME280;52576;53.614;9.894;2022-09-17T01:39:46;99984.56;;;11.40;100.00
21781;BME280;52576;53.614;9.894;2022-09-17T01:40:54;99986.22;;;11.42;100.00
21781;BME280;52576;53.614;9.894;2022-09-17T01:42:08;99970.50;;;11.33;100.00
21781;BME280;52576;53.614;9.894;2022-09-17T01:43:20;99988.06;;;11.41;100.00
21781;BME280;52576;53.614;9.894;2022-09-17T01:44:26;99985.16;;;11.43;100.00
21781;BME280;52576;53.614;9.894;2022-09-17T01:45:35;99981.47;;;11.44;100.00
21781;BME280;52576;53.614;9.894;2022-09-17T01:46:43;99991.34;;;11.43;100.00
21781;BME280;52576;53.614;9.894;2022-09-17T01:47:49;99979.56;;;11.44;100.00
21781;BME280;52576;53.614;9.894;2022-09-17T01:48:57;99987.38;;;11.46;100.00
21781;BME280;52576;53.614;9.894;2022-09-17T01:50:02;99982.03;;;11.46;100.00
21781;BME280;52576;53.614;9.894;2022-09-17T01:51:09;99987.38;;;11.46;100.00
21781;BME280;52576;53.614;9.894;2022-09-17T01:52:13;99987.38;;;11.46;100.00
21781;BME280;52576;53.614;9.894;2022-09-17T01:53:20;99996.25;;;11.46;100.00
21781;BME280;52576;53.614;9.894;2022-09-17T01:54:27;99998.09;;;11.46;100.00
21781;BME280;52576;53.614;9.894;2022-09-17T01:55:35;99996.47;;;11.45;100.00
21781;BME280;52576;53.614;9.894;2022-09-17T01:56:40;99992.16;;;11.44;100.00
21781;BME280;52576;53.614;9.894;2022-09-17T01:57:50;99995.88;;;11.43;100.00
21781;BME280;52576;53.614;9.894;2022-09-17T01:58:58;100007.41;;;11.43;100.00
21781;BME280;52576;53.614;9.894;2022-09-17T02:00:06;100005.56;;;11.44;100.00
21781;BME280;52576;53.614;9.894;2022-09-17T02:01:15;99995.88;;;11.43;100.00
21781;BME280;52576;53.614;9.894;2022-09-17T02:02:26;99998.56;;;11.43;100.00
21781;BME280;52576;53.614;9.894;2022-09-17T02:03:34;99993.19;;;11.43;100.00
21781;BME280;52576;53.614;9.894;2022-09-17T02:04:42;100000.63;;;11.40;100.00
21781;BME280;52576;53.614;9.894;2022-09-17T02:05:50;99996.34;;;11.39;100.00
21781;BME280;52576;53.614;9.894;2022-09-17T02:06:58;100002.75;;;11.38;100.00
21781;BME280;52576;53.614;9.894;2022-09-17T02:08:05;100000.28;;;11.37;100.00
21781;BME280;52576;53.614;9.894;2022-09-17T02:09:12;99997.81;;;11.35;100.00
21781;BME280;52576;53.614;9.894;2022-09-17T02:10:19;100002.38;;;11.35;100.00
21781;BME280;52576;53.614;9.894;2022-09-17T02:11:24;100004.22;;;11.34;100.00
21781;BME280;52576;53.614;9.894;2022-09-17T02:12:30;99997.25;;;11.33;100.00
21781;BME280;52576;53.614;9.894;2022-09-17T02:13:39;99998.06;;;11.34;100.00
21781;BME280;52576;53.614;9.894;2022-09-17T02:14:47;100006.09;;;11.34;100.00
21781;BME280;52576;53.614;9.894;2022-09-17T02:15:56;100005.28;;;11.33;100.00
21781;BME280;52576;53.614;9.894;2022-09-17T02:17:06;100005.28;;;11.33;100.00
21781;BME280;52576;53.614;9.894;2022-09-17T02:18:18;100005.28;;;11.33;100.00
21781;BME280;52576;53.614;9.894;2022-09-17T02:19:26;100002.59;;;11.33;100.00
21781;BME280;52576;53.614;9.894;2022-09-17T02:20:35;100005.28;;;11.33;100.00
21781;BME280;52576;53.614;9.894;2022-09-17T02:21:44;100012.25;;;11.34;100.00
21781;BME280;52576;53.614;9.894;2022-09-17T02:22:51;100005.28;;;11.33;100.00
21781;BME280;52576;53.614;9.894;2022-09-17T02:24:10;100012.25;;;11.34;100.00
21781;BME280;52576;53.614;9.894;2022-09-17T02:25:20;100009.59;;;11.34;100.00
21781;BME280;52576;53.614;9.894;2022-09-17T02:26:26;100001.19;;;11.31;100.00
21781;BME280;52576;53.614;9.894;2022-09-17T02:27:37;100011.81;;;11.37;100.00
21781;BME280;52576;53.614;9.894;2022-09-17T02:28:47;100013.66;;;11.37;100.00
21781;BME280;52576;53.614;9.894;2022-09-17T02:29:52;100009.13;;;11.37;100.00
21781;BME280;52576;53.614;9.894;2022-09-17T02:30:54;100002.38;;;11.35;100.00
21781;BME280;52576;53.614;9.894;2022-09-17T02:31:58;100007.03;;;11.39;100.00
21781;BME280;52576;53.614;9.894;2022-09-17T02:33:01;100007.88;;;11.40;100.00
21781;BME280;52576;53.614;9.894;2022-09-17T02:34:09;100004.38;;;11.39;100.00
21781;BME280;52576;53.614;9.894;2022-09-17T02:35:12;100004.59;;;11.38;100.00
21781;BME280;52576;53.614;9.894;2022-09-17T02:36:16;100000.28;;;11.37;100.00
21781;BME280;52576;53.614;9.894;2022-09-17T02:37:19;100011.81;;;11.37;100.00
21781;BME280;52576;53.614;9.894;2022-09-17T02:38:24;100006.69;;;11.36;100.00
21781;BME280;52576;53.614;9.894;2022-09-17T02:39:27;100016.56;;;11.35;100.00
21781;BME280;52576;53.614;9.894;2022-09-17T02:40:35;100015.75;;;11.35;100.00
21781;BME280;52576;53.614;9.894;2022-09-17T02:41:46;100022.97;;;11.34;100.00
21781;BME280;52576;53.614;9.894;2022-09-17T02:43:05;100006.91;;;11.34;100.00
21781;BME280;52576;53.614;9.894;2022-09-17T02:44:20;100009.81;;;11.33;100.00
21781;BME280;52576;53.614;9.894;2022-09-17T02:45:34;100009.81;;;11.33;100.00
21781;BME280;52576;53.614;9.894;2022-09-17T02:46:54;100006.31;;;11.32;100.00
21781;BME280;52576;53.614;9.894;2022-09-17T02:48:19;100005.47;;;11.32;100.00
21781;BME280;52576;53.614;9.894;2022-09-17T02:49:43;100007.38;;;11.31;100.00
21781;BME280;52576;53.614;9.894;2022-09-17T02:51:09;100000.38;;;11.30;100.00
21781;BME280;52576;53.614;9.894;2022-09-17T02:52:16;100009.00;;;11.32;100.00
21781;BME280;52576;53.614;9.894;2022-09-17T02:53:30;100003.03;;;11.30;100.00
21781;BME280;52576;53.614;9.894;2022-09-17T02:54:40;100009.22;;;11.31;100.00
21781;BME280;52576;53.614;9.894;2022-09-17T02:55:49;100010.84;;;11.32;100.00
21781;BME280;52576;53.614;9.894;2022-09-17T02:57:06;100001.19;;;11.31;100.00
21781;BME280;52576;53.614;9.894;2022-09-17T02:58:20;100002.00;;;11.31;100.00
21781;BME280;52576;53.614;9.894;2022-09-17T02:59:33;99995.84;;;11.31;100.00
21781;BME280;52576;53.614;9.894;2022-09-17T03:00:39;99998.50;;;11.31;100.00
21781;BME280;52576;53.614;9.894;2022-09-17T03:01:44;99999.56;;;11.30;100.00
21781;BME280;52576;53.614;9.894;2022-09-17T03:02:49;99999.56;;;11.30;100.00
21781;BME280;52576;53.614;9.894;2022-09-17T03:03:53;100001.66;;;11.28;100.00
21781;BME280;52576;53.614;9.894;2022-09-17T03:04:59;100003.28;;;11.29;100.00
21781;BME280;52576;53.614;9.894;2022-09-17T03:06:03;100006.19;;;11.27;100.00
21781;BME280;52576;53.614;9.894;2022-09-17T03:07:07;100005.16;;;11.28;100.00
21781;BME280;52576;53.614;9.894;2022-09-17T03:08:12;100000.59;;;11.29;100.00
21781;BME280;52576;53.614;9.894;2022-09-17T03:09:15;100000.59;;;11.29;100.00
21781;BME280;52576;53.614;9.894;2022-09-17T03:10:18;100003.50;;;11.27;100.00
21781;BME280;52576;53.614;9.894;2022-09-17T03:11:20;100002.47;;;11.28;100.00
21781;BME280;52576;53.614;9.894;2022-09-17T03:12:23;100004.09;;;11.29;100.00
21781;BME280;52576;53.614;9.894;2022-09-17T03:13:26;100005.16;;;11.28;100.00
21781;BME280;52576;53.614;9.894;2022-09-17T03:14:29;100005.16;;;11.28;100.00
21781;BME280;52576;53.614;9.894;2022-09-17T03:15:31;100005.16;;;11.28;100.00
21781;BME280;52576;53.614;9.894;2022-09-17T03:16:34;100006.78;;;11.29;100.00
21781;BME280;52576;53.614;9.894;2022-09-17T03:17:36;100007.59;;;11.30;100.00
21781;BME280;52576;53.614;9.894;2022-09-17T03:18:39;100006.78;;;11.29;100.00
21781;BME280;52576;53.614;9.894;2022-09-17T03:19:42;100004.09;;;11.29;100.00
21781;BME280;52576;53.614;9.894;2022-09-17T03:20:46;99999.56;;;11.30;100.00
21781;BME280;52576;53.614;9.894;2022-09-17T03:21:48;100008.38;;;11.30;100.00
21781;BME280;52576;53.614;9.894;2022-09-17T03:22:51;100007.59;;;11.30;100.00
21781;BME280;52576;53.614;9.894;2022-09-17T03:23:53;100008.38;;;11.30;100.00
21781;BME280;52576;53.614;9.894;2022-09-17T03:24:56;100005.72;;;11.30;100.00
21781;BME280;52576;53.614;9.894;2022-09-17T03:25:58;100008.38;;;11.30;100.00
21781;BME280;52576;53.614;9.894;2022-09-17T03:27:02;100008.16;;;11.32;100.00
21781;BME280;52576;53.614;9.894;2022-09-17T03:28:04;100014.56;;;11.31;100.00
21781;BME280;52576;53.614;9.894;2022-09-17T03:29:07;100008.38;;;11.30;100.00
21781;BME280;52576;53.614;9.894;2022-09-17T03:30:09;100014.56;;;11.31;100.00
21781;BME280;52576;53.614;9.894;2022-09-17T03:31:12;100013.75;;;11.30;100.00
21781;BME280;52576;53.614;9.894;2022-09-17T03:32:14;100007.59;;;11.30;100.00
21781;BME280;52576;53.614;9.894;2022-09-17T03:33:18;100008.38;;;11.30;100.00
21781;BME280;52576;53.614;9.894;2022-09-17T03:34:20;100005.72;;;11.30;100.00
21781;BME280;52576;53.614;9.894;2022-09-17T03:35:24;100007.59;;;11.30;100.00
21781;BME280;52576;53.614;9.894;2022-09-17T03:36:28;100010.84;;;11.32;100.00
21781;BME280;52576;53.614;9.894;2022-09-17T03:37:31;100021.78;;;11.30;100.00
21781;BME280;52576;53.614;9.894;2022-09-17T03:38:33;100024.22;;;11.32;100.00
21781;BME280;52576;53.614;9.894;2022-09-17T03:39:39;100025.06;;;11.32;100.00
21781;BME280;52576;53.614;9.894;2022-09-17T03:40:41;100018.06;;;11.31;100.00
21781;BME280;52576;53.614;9.894;2022-09-17T03:41:44;100021.78;;;11.30;100.00
21781;BME280;52576;53.614;9.894;2022-09-17T03:42:46;100023.44;;;11.31;100.00
21781;BME280;52576;53.614;9.894;2022-09-17T03:43:49;100019.09;;;11.30;100.00
21781;BME280;52576;53.614;9.894;2022-09-17T03:44:51;100018.31;;;11.30;100.00
21781;BME280;52576;53.614;9.894;2022-09-17T03:45:54;100016.41;;;11.30;100.00
21781;BME280;52576;53.614;9.894;2022-09-17T03:46:56;100020.16;;;11.29;100.00
21781;BME280;52576;53.614;9.894;2022-09-17T03:48:00;100022.84;;;11.29;100.00
21781;BME280;52576;53.614;9.894;2022-09-17T03:49:02;100029.25;;;11.28;100.00
21781;BME280;52576;53.614;9.894;2022-09-17T03:50:06;100025.75;;;11.28;100.00
21781;BME280;52576;53.614;9.894;2022-09-17T03:51:08;100026.75;;;11.27;100.00
21781;BME280;52576;53.614;9.894;2022-09-17T03:52:13;100028.66;;;11.26;100.00
21781;BME280;52576;53.614;9.894;2022-09-17T03:53:15;100030.72;;;11.24;100.00
21781;BME280;52576;53.614;9.894;2022-09-17T03:54:18;100030.72;;;11.24;100.00
21781;BME280;52576;53.614;9.894;2022-09-17T03:55:21;100027.22;;;11.24;100.00
21781;BME280;52576;53.614;9.894;2022-09-17T03:56:23;100020.25;;;11.23;100.00
21781;BME280;52576;53.614;9.894;2022-09-17T03:57:27;100025.59;;;11.23;100.00
21781;BME280;52576;53.614;9.894;2022-09-17T03:58:30;100023.16;;;11.21;100.00
21781;BME280;52576;53.614;9.894;2022-09-17T03:59:33;100025.81;;;11.21;100.00
21781;BME280;52576;53.614;9.894;2022-09-17T04:00:35;100016.97;;;11.21;100.00
21781;BME280;52576;53.614;9.894;2022-09-17T04:01:38;100027.69;;;11.21;100.00
21781;BME280;52576;53.614;9.894;2022-09-17T04:02:40;100023.38;;;11.20;100.00
21781;BME280;52576;53.614;9.894;2022-09-17T04:03:44;100032.44;;;11.19;100.00
21781;BME280;52576;53.614;9.894;2022-09-17T04:04:46;100030.81;;;11.18;100.00
21781;BME280;52576;53.614;9.894;2022-09-17T04:05:49;100031.84;;;11.17;100.00
21781;BME280;52576;53.614;9.894;2022-09-17T04:06:52;100030.22;;;11.16;100.00
21781;BME280;52576;53.614;9.894;2022-09-17T04:07:56;100033.13;;;11.14;100.00
21781;BME280;52576;53.614;9.894;2022-09-17T04:08:58;100028.81;;;11.13;100.00
21781;BME280;52576;53.614;9.894;2022-09-17T04:10:02;100060.34;;;11.11;100.00
21781;BME280;52576;53.614;9.894;2022-09-17T04:11:05;100034.38;;;11.12;100.00
21781;BME280;52576;53.614;9.894;2022-09-17T04:12:09;100022.88;;;11.11;100.00
21781;BME280;52576;53.614;9.894;2022-09-17T04:13:11;100025.78;;;11.10;100.00
21781;BME280;52576;53.614;9.894;2022-09-17T04:14:15;100026.00;;;11.08;100.00
21781;BME280;52576;53.614;9.894;2022-09-17T04:15:17;100027.03;;;11.07;100.00
21781;BME280;52576;53.614;9.894;2022-09-17T04:16:20;100033.19;;;11.08;100.00
21781;BME280;52576;53.614;9.894;2022-09-17T04:17:22;100033.44;;;11.06;100.00
21781;BME280;52576;53.614;9.894;2022-09-17T04:18:25;100033.44;;;11.06;100.00
21781;BME280;52576;53.614;9.894;2022-09-17T04:19:27;100017.84;;;11.03;100.00
21781;BME280;52576;53.614;9.894;2022-09-17T04:20:30;100027.94;;;11.01;100.00
21781;BME280;52576;53.614;9.894;2022-09-17T04:21:32;100026.28;;;11.00;100.00
21781;BME280;52576;53.614;9.894;2022-09-17T04:22:35;100022.81;;;11.00;100.00
21781;BME280;52576;53.614;9.894;2022-09-17T04:23:39;100025.72;;;10.98;100.00
21781;BME280;52576;53.614;9.894;2022-09-17T04:24:42;100027.78;;;10.96;100.00
21781;BME280;52576;53.614;9.894;2022-09-17T04:25:44;100027.78;;;10.96;100.00
21781;BME280;52576;53.614;9.894;2022-09-17T04:26:47;100031.50;;;10.95;100.00
21781;BME280;52576;53.614;9.894;2022-09-17T04:27:49;100043.25;;;10.94;100.00
21781;BME280;52576;53.614;9.894;2022-09-17T04:28:52;100032.78;;;10.93;100.00
21781;BME280;52576;53.614;9.894;2022-09-17T04:29:54;100041.81;;;10.92;100.00
21781;BME280;52576;53.614;9.894;2022-09-17T04:30:57;100043.69;;;10.91;100.00
21781;BME280;52576;53.614;9.894;2022-09-17T04:32:00;100041.25;;;10.90;100.00
21781;BME280;52576;53.614;9.894;2022-09-17T04:33:03;100037.75;;;10.89;100.00
21781;BME280;52576;53.614;9.894;2022-09-17T04:34:05;100037.97;;;10.88;100.00
21781;BME280;52576;53.614;9.894;2022-09-17T04:35:08;100047.84;;;10.87;100.00
21781;BME280;52576;53.614;9.894;2022-09-17T04:36:10;100047.03;;;10.87;100.00
21781;BME280;52576;53.614;9.894;2022-09-17T04:37:13;100047.25;;;10.85;100.00
21781;BME280;52576;53.614;9.894;2022-09-17T04:38:15;100033.88;;;10.85;100.00
21781;BME280;52576;53.614;9.894;2022-09-17T04:39:22;100040.28;;;10.84;100.00
21781;BME280;52576;53.614;9.894;2022-09-17T04:40:25;100044.19;;;10.82;100.00
21781;BME280;52576;53.614;9.894;2022-09-17T04:41:28;100047.94;;;10.81;100.00
21781;BME280;52576;53.614;9.894;2022-09-17T04:42:30;100051.66;;;10.80;100.00
21781;BME280;52576;53.614;9.894;2022-09-17T04:43:34;100060.09;;;10.77;100.00
21781;BME280;52576;53.614;9.894;2022-09-17T04:44:36;100052.06;;;10.77;100.00
21781;BME280;52576;53.614;9.894;2022-09-17T04:45:39;100053.94;;;10.76;100.00
21781;BME280;52576;53.614;9.894;2022-09-17T04:46:41;100042.66;;;10.74;100.00
21781;BME280;52576;53.614;9.894;2022-09-17T04:47:44;100047.16;;;10.74;100.00
21781;BME280;52576;53.614;9.894;2022-09-17T04:48:46;100048.22;;;10.73;100.00
21781;BME280;52576;53.614;9.894;2022-09-17T04:49:50;100045.56;;;10.73;100.00
21781;BME280;52576;53.614;9.894;2022-09-17T04:50:52;100044.72;;;10.72;100.00
21781;BME280;52576;53.614;9.894;2022-09-17T04:51:55;100046.56;;;10.72;100.00
21781;BME280;52576;53.614;9.894;2022-09-17T04:52:57;100051.13;;;10.71;100.00
21781;BME280;52576;53.614;9.894;2022-09-17T04:54:00;100040.44;;;10.71;100.00
21781;BME280;52576;53.614;9.894;2022-09-17T04:55:05;100055.66;;;10.71;100.00
21781;BME280;52576;53.614;9.894;2022-09-17T04:56:08;100049.47;;;10.70;100.00
21781;BME280;52576;53.614;9.894;2022-09-17T04:57:10;100052.16;;;10.70;100.00
21781;BME280;52576;53.614;9.894;2022-09-17T04:58:13;100054.25;;;10.68;100.00
21781;BME280;52576;53.614;9.894;2022-09-17T04:59:15;100050.75;;;10.68;100.00
21781;BME280;52576;53.614;9.894;2022-09-17T05:00:19;100057.13;;;10.67;100.00
21781;BME280;52576;53.614;9.894;2022-09-17T05:01:22;100054.44;;;10.67;100.00
21781;BME280;52576;53.614;9.894;2022-09-17T05:02:25;100056.31;;;10.66;100.00
21781;BME280;52576;53.614;9.894;2022-09-17T05:03:27;100052.81;;;10.66;100.00
21781;BME280;52576;53.614;9.894;2022-09-17T05:04:30;100053.66;;;10.66;100.00
21781;BME280;52576;53.614;9.894;2022-09-17T05:05:32;100051.19;;;10.65;100.00
21781;BME280;52576;53.614;9.894;2022-09-17T05:06:35;100055.72;;;10.64;100.00
21781;BME280;52576;53.614;9.894;2022-09-17T05:07:38;100051.19;;;10.65;100.00
21781;BME280;52576;53.614;9.894;2022-09-17T05:08:41;100053.03;;;10.64;100.00
21781;BME280;52576;53.614;9.894;2022-09-17T05:09:43;100054.09;;;10.63;100.00
21781;BME280;52576;53.614;9.894;2022-09-17T05:10:48;100048.75;;;10.63;100.00
21781;BME280;52576;53.614;9.894;2022-09-17T05:11:50;100052.22;;;10.64;100.00
21781;BME280;52576;53.614;9.894;2022-09-17T05:12:54;100060.47;;;10.62;100.00
21781;BME280;52576;53.614;9.894;2022-09-17T05:13:57;100061.28;;;10.63;100.00
21781;BME280;52576;53.614;9.894;2022-09-17T05:15:00;100060.91;;;10.59;100.00
21781;BME280;52576;53.614;9.894;2022-09-17T05:16:02;100049.78;;;10.62;100.00
21781;BME280;52576;53.614;9.894;2022-09-17T05:17:05;100056.78;;;10.63;100.00
21781;BME280;52576;53.614;9.894;2022-09-17T05:18:07;100059.44;;;10.63;100.00
21781;BME280;52576;53.614;9.894;2022-09-17T05:19:10;100055.72;;;10.64;100.00
21781;BME280;52576;53.614;9.894;2022-09-17T05:20:13;100055.72;;;10.64;100.00
21781;BME280;52576;53.614;9.894;2022-09-17T05:21:17;100050.38;;;10.64;100.00
21781;BME280;52576;53.614;9.894;2022-09-17T05:22:19;100050.38;;;10.64;100.00
21781;BME280;52576;53.614;9.894;2022-09-17T05:23:22;100055.50;;;10.66;100.00
21781;BME280;52576;53.614;9.894;2022-09-17T05:24:24;100060.84;;;10.66;100.00
21781;BME280;52576;53.614;9.894;2022-09-17T05:25:27;100053.66;;;10.66;100.00
21781;BME280;52576;53.614;9.894;2022-09-17T05:26:31;100062.47;;;10.67;100.00
21781;BME280;52576;53.614;9.894;2022-09-17T05:27:34;100057.94;;;10.67;100.00
21781;BME280;52576;53.614;9.894;2022-09-17T05:28:36;100057.94;;;10.67;100.00
21781;BME280;52576;53.614;9.894;2022-09-17T05:29:39;100057.94;;;10.67;100.00
21781;BME280;52576;53.614;9.894;2022-09-17T05:30:41;100057.94;;;10.67;100.00
21781;BME280;52576;53.614;9.894;2022-09-17T05:31:44;100058.78;;;10.68;100.00
21781;BME280;52576;53.614;9.894;2022-09-17T05:32:47;100062.28;;;10.68;100.00
21781;BME280;52576;53.614;9.894;2022-09-17T05:33:50;100062.28;;;10.68;100.00
21781;BME280;52576;53.614;9.894;2022-09-17T05:34:52;100063.06;;;10.69;100.00
21781;BME280;52576;53.614;9.894;2022-09-17T05:35:55;100064.13;;;10.68;100.00
21781;BME280;52576;53.614;9.894;2022-09-17T05:36:58;100066.56;;;10.69;100.00
21781;BME280;52576;53.614;9.894;2022-09-17T05:38:01;100066.56;;;10.69;100.00
21781;BME280;52576;53.614;9.894;2022-09-17T05:39:05;100070.88;;;10.70;100.00
21781;BME280;52576;53.614;9.894;2022-09-17T05:40:08;100064.50;;;10.71;100.00
21781;BME280;52576;53.614;9.894;2022-09-17T05:41:11;100063.44;;;10.72;100.00